createdAt,value
2019-05-26T00:01:31.601Z,15.50
2019-05-26T00:04:00.271Z,15.60
2019-05-26T00:06:28.974Z,15.50
2019-05-26T00:08:57.630Z,15.50
2019-05-26T00:11:26.307Z,15.40
2019-05-26T00:13:54.983Z,15.50
2019-05-26T00:16:23.639Z,15.50
2019-05-26T00:18:52.326Z,15.50
2019-05-26T00:21:20.983Z,15.40
2019-05-26T00:23:49.648Z,15.40
2019-05-26T00:26:18.307Z,15.40
2019-05-26T00:28:46.993Z,15.30
2019-05-26T00:31:15.648Z,15.30
2019-05-26T00:33:44.312Z,15.20
2019-05-26T00:36:12.999Z,15.10
2019-05-26T00:38:41.669Z,15.10
2019-05-26T00:41:10.415Z,15.10
2019-05-26T00:43:39.136Z,15.10
2019-05-26T00:46:07.908Z,15.00
2019-05-26T00:48:36.572Z,14.90
2019-05-26T00:51:05.393Z,14.90
2019-05-26T00:53:34.117Z,14.90
2019-05-26T00:56:02.839Z,14.90
2019-05-26T00:58:31.653Z,15.00
2019-05-26T01:01:00.878Z,15.00
2019-05-26T01:03:29.729Z,15.00
2019-05-26T01:05:58.534Z,14.90
2019-05-26T01:08:27.208Z,14.90
2019-05-26T01:10:55.878Z,14.80
2019-05-26T01:13:24.534Z,14.70
2019-05-26T01:15:53.287Z,14.70
2019-05-26T01:18:21.991Z,14.70
2019-05-26T01:20:50.647Z,14.70
2019-05-26T01:23:19.328Z,14.70
2019-05-26T01:25:47.986Z,14.70
2019-05-26T01:28:16.647Z,14.70
2019-05-26T01:30:45.695Z,14.70
2019-05-26T01:33:14.419Z,14.70
2019-05-26T01:35:43.427Z,14.70
2019-05-26T01:38:23.693Z,14.70
2019-05-26T01:40:45.079Z,14.70
2019-05-26T01:43:13.866Z,14.60
2019-05-26T01:45:42.605Z,14.60
2019-05-26T01:48:11.551Z,14.60
2019-05-26T01:50:40.300Z,14.60
2019-05-26T01:53:09.055Z,14.50
2019-05-26T01:55:37.734Z,14.50
2019-05-26T01:58:06.837Z,14.40
2019-05-26T02:00:35.577Z,14.30
2019-05-26T02:03:04.590Z,14.30
2019-05-26T02:05:33.408Z,14.20
2019-05-26T02:08:02.058Z,14.20
2019-05-26T02:10:30.805Z,14.10
2019-05-26T02:12:59.465Z,14.10
2019-05-26T02:15:29.586Z,14.10
2019-05-26T02:17:58.313Z,14.10
2019-05-26T02:20:27.414Z,14.10
2019-05-26T02:22:56.074Z,14.10
2019-05-26T02:25:25.278Z,14.10
2019-05-26T02:27:54.022Z,14.00
2019-05-26T02:30:23.621Z,13.90
2019-05-26T02:32:52.332Z,13.90
2019-05-26T02:35:21.357Z,13.90
2019-05-26T02:37:50.023Z,13.90
2019-05-26T02:40:20.596Z,13.80
2019-05-26T02:42:49.439Z,13.80
2019-05-26T02:45:20.491Z,13.70
2019-05-26T02:47:49.320Z,13.60
2019-05-26T02:50:18.717Z,13.60
2019-05-26T02:52:47.511Z,13.60
2019-05-26T02:55:16.739Z,13.60
2019-05-26T02:57:45.463Z,13.60
2019-05-26T03:00:15.877Z,13.50
2019-05-26T03:02:44.994Z,13.50
2019-05-26T03:05:15.664Z,13.40
2019-05-26T03:07:44.554Z,13.30
2019-05-26T03:10:16.358Z,13.30
2019-05-26T03:12:46.893Z,13.30
2019-05-26T03:15:16.776Z,13.30
2019-05-26T03:17:47.456Z,13.20
2019-05-26T03:20:16.367Z,13.20
2019-05-26T03:22:48.434Z,13.20
2019-05-26T03:25:17.204Z,13.20
2019-05-26T03:27:45.955Z,13.20
2019-05-26T03:30:14.739Z,13.20
2019-05-26T03:32:43.408Z,13.20
2019-05-26T03:35:12.385Z,13.20
2019-05-26T03:37:41.136Z,13.20
2019-05-26T03:40:10.833Z,13.10
2019-05-26T03:42:39.510Z,13.00
2019-05-26T03:45:08.597Z,13.10
2019-05-26T03:47:37.494Z,13.10
2019-05-26T03:50:09.227Z,13.10
2019-05-26T03:52:37.943Z,13.10
2019-05-26T03:55:09.381Z,13.10
2019-05-26T03:57:38.091Z,13.10
2019-05-26T04:00:09.619Z,13.10
2019-05-26T04:02:38.414Z,13.10
2019-05-26T04:05:08.040Z,13.10
2019-05-26T04:07:36.712Z,13.10
2019-05-26T04:10:07.142Z,13.00
2019-05-26T04:12:36.076Z,13.00
2019-05-26T04:15:09.185Z,13.00
2019-05-26T04:17:37.859Z,13.00
2019-05-26T04:20:07.351Z,13.00
2019-05-26T04:22:36.019Z,13.00
2019-05-26T04:25:06.589Z,13.10
2019-05-26T04:27:35.241Z,13.10
2019-05-26T04:30:06.959Z,13.20
2019-05-26T04:32:35.617Z,13.10
2019-05-26T04:35:07.090Z,13.20
2019-05-26T04:37:35.779Z,13.20
2019-05-26T04:40:25.984Z,13.20
2019-05-26T04:42:40.142Z,13.30
2019-05-26T04:45:09.082Z,13.30
2019-05-26T04:47:37.747Z,13.30
2019-05-26T04:50:06.636Z,13.30
2019-05-26T04:52:35.326Z,13.30
2019-05-26T04:55:09.276Z,13.40
2019-05-26T04:57:37.997Z,13.40
2019-05-26T05:00:07.902Z,13.20
2019-05-26T05:02:36.692Z,13.40
2019-05-26T05:05:07.378Z,13.40
2019-05-26T05:07:36.050Z,13.50
2019-05-26T05:10:06.426Z,13.50
2019-05-26T05:12:35.198Z,13.60
2019-05-26T05:15:09.094Z,13.60
2019-05-26T05:17:37.750Z,13.70
2019-05-26T05:20:07.653Z,13.70
2019-05-26T05:22:36.327Z,13.80
2019-05-26T05:25:14.710Z,13.80
2019-05-26T05:27:39.440Z,13.90
2019-05-26T05:30:09.139Z,13.90
2019-05-26T05:32:37.883Z,13.90
2019-05-26T05:35:08.783Z,13.90
2019-05-26T05:37:37.538Z,14.00
2019-05-26T05:40:09.753Z,14.10
2019-05-26T05:42:38.575Z,14.10
2019-05-26T05:45:08.338Z,14.10
2019-05-26T05:47:37.097Z,14.20
2019-05-26T05:50:08.850Z,14.20
2019-05-26T05:52:37.612Z,14.40
2019-05-26T05:55:06.820Z,14.50
2019-05-26T05:57:35.476Z,14.60
2019-05-26T06:00:09.360Z,14.60
2019-05-26T06:02:38.164Z,14.80
2019-05-26T06:05:08.243Z,14.90
2019-05-26T06:07:36.921Z,15.00
2019-05-26T06:10:07.924Z,15.10
2019-05-26T06:12:36.684Z,15.20
2019-05-26T06:15:10.214Z,15.30
2019-05-26T06:17:38.177Z,15.40
2019-05-26T06:20:08.482Z,15.50
2019-05-26T06:22:37.165Z,15.50
2019-05-26T06:25:06.666Z,15.30
2019-05-26T06:27:35.337Z,15.50
2019-05-26T06:30:07.811Z,15.50
2019-05-26T06:32:36.478Z,15.50
2019-05-26T06:35:06.277Z,15.60
2019-05-26T06:37:35.056Z,15.70
2019-05-26T06:40:07.508Z,15.80
2019-05-26T06:42:36.637Z,15.80
2019-05-26T06:45:07.097Z,16.00
2019-05-26T06:47:35.750Z,16.00
2019-05-26T06:50:08.753Z,16.20
2019-05-26T06:52:37.429Z,16.30
2019-05-26T06:55:06.467Z,16.50
2019-05-26T06:57:35.158Z,16.50
2019-05-26T07:00:08.662Z,16.50
2019-05-26T07:02:37.391Z,16.50
2019-05-26T07:05:07.422Z,16.70
2019-05-26T07:07:36.134Z,17.00
2019-05-26T07:10:08.204Z,17.30
2019-05-26T07:12:37.385Z,17.50
2019-05-26T07:15:09.427Z,17.50
2019-05-26T07:17:38.108Z,17.60
2019-05-26T07:20:07.537Z,17.80
2019-05-26T07:22:36.203Z,18.10
2019-05-26T07:25:09.036Z,18.30
2019-05-26T07:27:37.860Z,18.50
2019-05-26T07:30:07.996Z,18.80
2019-05-26T07:32:37.252Z,19.00
2019-05-26T07:35:06.921Z,19.00
2019-05-26T07:37:35.689Z,19.00
2019-05-26T07:40:06.081Z,18.80
2019-05-26T07:42:35.205Z,19.00
2019-05-26T07:45:07.441Z,18.90
2019-05-26T07:47:36.262Z,18.80
2019-05-26T07:50:08.530Z,18.70
2019-05-26T07:52:37.331Z,18.60
2019-05-26T07:55:06.625Z,18.70
2019-05-26T07:57:35.530Z,18.70
2019-05-26T08:00:08.343Z,18.70
2019-05-26T08:02:37.023Z,18.80
2019-05-26T08:05:07.139Z,18.80
2019-05-26T08:07:35.860Z,18.80
2019-05-26T08:10:06.930Z,18.80
2019-05-26T08:12:35.611Z,18.80
2019-05-26T08:15:06.692Z,18.80
2019-05-26T08:17:35.478Z,18.90
2019-05-26T08:20:06.891Z,19.00
2019-05-26T08:22:35.567Z,19.20
2019-05-26T08:25:08.099Z,19.30
2019-05-26T08:27:36.904Z,19.40
2019-05-26T08:30:07.218Z,19.30
2019-05-26T08:32:36.017Z,19.40
2019-05-26T08:35:06.908Z,19.50
2019-05-26T08:37:35.587Z,19.50
2019-05-26T08:40:18.405Z,19.60
2019-05-26T08:42:51.348Z,19.70
2019-05-26T08:45:23.142Z,19.80
2019-05-26T08:47:52.215Z,19.70
2019-05-26T08:50:22.123Z,19.70
2019-05-26T08:52:50.784Z,19.60
2019-05-26T08:55:19.689Z,19.60
2019-05-26T08:57:48.863Z,19.60
2019-05-26T09:00:18.090Z,19.60
2019-05-26T09:02:46.842Z,19.50
2019-05-26T09:05:16.120Z,19.60
2019-05-26T09:07:44.884Z,19.60
2019-05-26T09:10:13.806Z,19.60
2019-05-26T09:12:42.477Z,19.70
2019-05-26T09:15:11.262Z,19.70
2019-05-26T09:17:40.006Z,19.80
2019-05-26T09:20:11.552Z,19.80
2019-05-26T09:22:39.982Z,20.00
2019-05-26T09:25:09.003Z,19.90
2019-05-26T09:27:37.693Z,19.90
2019-05-26T09:30:08.220Z,19.90
2019-05-26T09:32:37.305Z,20.00
2019-05-26T09:35:07.415Z,20.00
2019-05-26T09:37:36.086Z,20.00
2019-05-26T09:40:09.386Z,20.10
2019-05-26T09:42:38.134Z,20.20
2019-05-26T09:45:08.255Z,20.30
2019-05-26T09:47:36.938Z,20.40
2019-05-26T09:50:07.594Z,20.40
2019-05-26T09:52:36.811Z,20.50
2019-05-26T09:55:07.217Z,20.50
2019-05-26T09:57:36.155Z,20.60
2019-05-26T10:00:09.541Z,20.60
2019-05-26T10:02:38.332Z,20.80
2019-05-26T10:05:07.648Z,20.80
2019-05-26T10:07:36.320Z,20.90
2019-05-26T10:10:09.008Z,21.00
2019-05-26T10:12:37.853Z,21.10
2019-05-26T10:15:07.367Z,21.10
2019-05-26T10:17:36.111Z,21.10
2019-05-26T10:20:09.756Z,21.20
2019-05-26T10:22:38.421Z,21.40
2019-05-26T10:25:07.836Z,21.50
2019-05-26T10:27:36.655Z,21.50
2019-05-26T10:30:10.528Z,21.50
2019-05-26T10:32:39.215Z,21.60
2019-05-26T10:35:08.117Z,21.70
2019-05-26T10:37:36.780Z,21.80
2019-05-26T10:40:06.989Z,21.80
2019-05-26T10:42:35.664Z,21.80
2019-05-26T10:45:06.906Z,21.80
2019-05-26T10:47:35.598Z,22.00
2019-05-26T10:50:12.377Z,22.10
2019-05-26T10:52:41.124Z,22.10
2019-05-26T10:55:10.195Z,22.10
2019-05-26T10:57:38.944Z,22.20
2019-05-26T11:00:09.258Z,22.10
2019-05-26T11:02:37.974Z,22.20
2019-05-26T11:05:07.401Z,22.30
2019-05-26T11:07:36.247Z,22.50
2019-05-26T11:10:06.875Z,22.70
2019-05-26T11:12:35.933Z,22.90
2019-05-26T11:15:09.538Z,22.90
2019-05-26T11:17:38.363Z,22.90
2019-05-26T11:20:09.149Z,22.90
2019-05-26T11:22:37.802Z,23.00
2019-05-26T11:25:07.026Z,22.90
2019-05-26T11:27:35.677Z,23.00
2019-05-26T11:30:10.119Z,23.00
2019-05-26T11:32:38.886Z,23.00
2019-05-26T11:35:08.600Z,23.00
2019-05-26T11:37:37.352Z,22.90
2019-05-26T11:40:07.212Z,23.00
2019-05-26T11:42:35.926Z,22.90
2019-05-26T11:45:09.220Z,22.90
2019-05-26T11:47:37.958Z,22.90
2019-05-26T11:50:08.525Z,22.90
2019-05-26T11:52:37.221Z,22.90
2019-05-26T11:55:07.265Z,22.90
2019-05-26T11:57:37.205Z,23.00
2019-05-26T12:00:09.755Z,23.10
2019-05-26T12:02:39.141Z,23.20
2019-05-26T12:05:08.149Z,23.20
2019-05-26T12:07:36.883Z,23.20
2019-05-26T12:10:06.810Z,23.20
2019-05-26T12:12:35.708Z,23.00
2019-05-26T12:15:09.143Z,22.90
2019-05-26T12:17:37.946Z,22.90
2019-05-26T12:20:07.254Z,23.00
2019-05-26T12:22:36.136Z,23.10
2019-05-26T12:25:08.635Z,23.20
2019-05-26T12:27:37.432Z,23.30
2019-05-26T12:30:10.042Z,23.40
2019-05-26T12:32:38.786Z,23.50
2019-05-26T12:35:08.398Z,23.50
2019-05-26T12:37:37.215Z,23.50
2019-05-26T12:40:07.778Z,23.40
2019-05-26T12:42:36.437Z,23.50
2019-05-26T12:45:09.615Z,23.50
2019-05-26T12:47:38.349Z,23.70
2019-05-26T12:50:08.572Z,23.70
2019-05-26T12:52:37.671Z,23.80
2019-05-26T12:55:09.488Z,23.80
2019-05-26T12:57:37.715Z,23.90
2019-05-26T13:00:10.801Z,23.90
2019-05-26T13:02:39.529Z,24.00
2019-05-26T13:05:08.634Z,23.90
2019-05-26T13:07:37.459Z,24.00
2019-05-26T13:10:08.279Z,24.00
2019-05-26T13:12:37.016Z,24.10
2019-05-26T13:15:08.599Z,24.00
2019-05-26T13:17:37.312Z,23.90
2019-05-26T13:20:08.144Z,23.80
2019-05-26T13:22:37.059Z,23.90
2019-05-26T13:25:07.899Z,24.00
2019-05-26T13:27:36.560Z,24.00
2019-05-26T13:30:13.711Z,24.00
2019-05-26T13:32:42.371Z,24.00
2019-05-26T13:35:11.673Z,24.10
2019-05-26T13:37:40.420Z,24.10
2019-05-26T13:40:09.511Z,24.00
2019-05-26T13:42:38.252Z,23.90
2019-05-26T13:45:21.903Z,23.90
2019-05-26T13:47:39.781Z,23.80
2019-05-26T13:50:10.323Z,23.70
2019-05-26T13:52:38.984Z,23.70
2019-05-26T13:55:08.597Z,23.70
2019-05-26T13:57:37.328Z,23.70
2019-05-26T14:00:12.113Z,23.70
2019-05-26T14:02:40.854Z,23.80
2019-05-26T14:05:09.964Z,23.90
2019-05-26T14:07:38.685Z,24.00
2019-05-26T14:10:08.151Z,24.00
2019-05-26T14:12:36.969Z,24.10
2019-05-26T14:15:08.001Z,24.10
2019-05-26T14:17:38.565Z,24.10
2019-05-26T14:20:08.311Z,24.10
2019-05-26T14:22:37.055Z,24.10
2019-05-26T14:25:06.966Z,24.10
2019-05-26T14:27:35.647Z,24.00
2019-05-26T14:30:08.357Z,24.10
2019-05-26T14:32:37.124Z,24.00
2019-05-26T14:35:06.853Z,24.00
2019-05-26T14:37:35.507Z,24.10
2019-05-26T14:40:08.601Z,23.90
2019-05-26T14:42:37.315Z,23.90
2019-05-26T14:45:09.080Z,23.80
2019-05-26T14:47:37.843Z,23.90
2019-05-26T14:50:08.782Z,23.90
2019-05-26T14:52:38.528Z,23.90
2019-05-26T14:55:07.456Z,23.90
2019-05-26T14:57:36.185Z,23.90
2019-05-26T15:00:09.300Z,23.80
2019-05-26T15:02:37.978Z,23.70
2019-05-26T15:05:07.329Z,23.70
2019-05-26T15:07:36.364Z,23.70
2019-05-26T15:10:09.095Z,23.50
2019-05-26T15:12:37.741Z,23.30
2019-05-26T15:15:07.086Z,23.20
2019-05-26T15:17:35.786Z,23.10
2019-05-26T15:20:08.337Z,23.10
2019-05-26T15:22:36.992Z,23.10
2019-05-26T15:25:06.745Z,22.90
2019-05-26T15:27:35.754Z,23.00
2019-05-26T15:30:09.055Z,22.90
2019-05-26T15:32:37.668Z,22.90
2019-05-26T15:35:06.993Z,22.90
2019-05-26T15:37:35.595Z,22.90
2019-05-26T15:40:08.507Z,22.90
2019-05-26T15:42:37.233Z,22.90
2019-05-26T15:45:10.206Z,22.90
2019-05-26T15:47:38.809Z,22.90
2019-05-26T15:50:09.146Z,22.90
2019-05-26T15:52:37.768Z,22.80
2019-05-26T15:55:07.314Z,22.80
2019-05-26T15:57:35.907Z,22.70
2019-05-26T16:00:09.363Z,22.60
2019-05-26T16:02:37.973Z,22.60
2019-05-26T16:05:07.010Z,22.60
2019-05-26T16:07:35.698Z,22.60
2019-05-26T16:10:08.102Z,22.60
2019-05-26T16:12:36.795Z,22.70
2019-05-26T16:15:07.327Z,22.80
2019-05-26T16:17:38.689Z,22.80
2019-05-26T16:20:06.595Z,22.90
2019-05-26T16:22:35.191Z,22.80
2019-05-26T16:25:05.037Z,22.70
2019-05-26T16:27:33.642Z,22.60
2019-05-26T16:30:02.327Z,22.70
2019-05-26T16:32:30.944Z,22.70
2019-05-26T16:34:59.535Z,22.60
2019-05-26T16:37:28.151Z,22.60
2019-05-26T16:39:56.848Z,22.60
2019-05-26T16:42:25.516Z,22.60
2019-05-26T16:44:54.124Z,22.50
2019-05-26T16:47:22.759Z,22.30
2019-05-26T16:49:51.368Z,22.50
2019-05-26T16:52:20.124Z,22.50
2019-05-26T16:54:48.747Z,22.60
2019-05-26T16:57:17.333Z,22.70
2019-05-26T16:59:46.005Z,22.80
2019-05-26T17:02:14.670Z,22.70
2019-05-26T17:04:43.259Z,22.70
2019-05-26T17:07:11.841Z,22.70
2019-05-26T17:09:40.450Z,22.70
2019-05-26T17:12:09.066Z,22.80
2019-05-26T17:14:37.668Z,22.80
2019-05-26T17:17:14.661Z,22.70
2019-05-26T17:19:35.987Z,22.80
2019-05-26T17:22:04.846Z,22.70
2019-05-26T17:24:33.458Z,22.70
2019-05-26T17:27:02.219Z,22.60
2019-05-26T17:29:30.831Z,22.50
2019-05-26T17:31:59.567Z,22.50
2019-05-26T17:34:28.159Z,22.50
2019-05-26T17:36:56.759Z,22.50
2019-05-26T17:39:25.375Z,22.50
2019-05-26T17:41:53.968Z,22.50
2019-05-26T17:44:22.644Z,22.40
2019-05-26T17:46:51.256Z,22.40
2019-05-26T17:49:19.855Z,22.40
2019-05-26T17:51:48.468Z,22.30
2019-05-26T17:54:17.061Z,22.40
2019-05-26T17:56:45.802Z,22.30
2019-05-26T17:59:14.426Z,22.30
2019-05-26T18:01:43.003Z,22.30
2019-05-26T18:04:11.614Z,22.30
2019-05-26T18:06:40.229Z,22.20
2019-05-26T18:09:08.896Z,22.20
2019-05-26T18:11:37.484Z,22.10
2019-05-26T18:14:06.169Z,22.10
2019-05-26T18:16:34.907Z,22.10
2019-05-26T18:19:03.578Z,22.00
2019-05-26T18:21:32.169Z,21.90
2019-05-26T18:24:00.764Z,21.90
2019-05-26T18:26:31.056Z,21.90
2019-05-26T18:28:59.650Z,21.90
2019-05-26T18:31:29.315Z,21.80
2019-05-26T18:33:58.654Z,21.70
2019-05-26T18:36:27.257Z,21.70
2019-05-26T18:38:55.842Z,21.60
2019-05-26T18:41:24.441Z,21.50
2019-05-26T18:43:53.146Z,21.40
2019-05-26T18:46:21.747Z,21.40
2019-05-26T18:48:50.341Z,21.40
2019-05-26T18:51:19.093Z,21.30
2019-05-26T18:53:47.716Z,21.30
2019-05-26T18:56:16.315Z,21.20
2019-05-26T18:58:44.901Z,21.20
2019-05-26T19:01:13.611Z,21.20
2019-05-26T19:03:42.271Z,21.10
2019-05-26T19:06:11.066Z,21.10
2019-05-26T19:08:39.659Z,20.90
2019-05-26T19:48:54.468Z,21.20
2019-05-26T19:51:25.107Z,21.10
2019-05-26T19:53:55.667Z,20.90
2019-05-26T19:56:26.153Z,20.90
2019-05-26T19:59:52.986Z,20.80
2019-05-26T20:02:23.494Z,20.80
2019-05-26T20:04:53.997Z,20.70
2019-05-26T20:07:24.525Z,20.60
2019-05-26T20:09:55.010Z,20.60
2019-05-26T20:12:25.530Z,20.40
2019-05-26T20:14:56.089Z,20.40
2019-05-26T20:17:26.601Z,20.30
2019-05-26T20:19:57.098Z,20.30
2019-05-26T20:22:27.610Z,20.30
2019-05-26T20:24:58.126Z,20.30
2019-05-26T20:27:28.641Z,20.20
2019-05-26T20:29:59.135Z,20.10
2019-05-26T20:32:29.641Z,19.90
2019-05-26T20:35:00.129Z,19.90
2019-05-26T20:37:30.640Z,19.90
2019-05-26T20:40:01.124Z,19.90
2019-05-26T20:42:31.640Z,19.80
2019-05-26T20:45:02.140Z,19.70
2019-05-26T20:47:33.709Z,19.70
2019-05-26T20:50:08.247Z,19.50
2019-05-26T20:52:38.788Z,19.50
2019-05-26T20:55:10.624Z,19.50
2019-05-26T20:57:41.133Z,19.50
2019-05-26T21:00:13.514Z,19.30
2019-05-26T21:02:44.669Z,19.30
2019-05-26T21:05:15.495Z,19.30
2019-05-26T21:07:46.012Z,19.20
2019-05-26T21:10:16.858Z,19.20
2019-05-26T21:12:47.361Z,19.10
2019-05-26T21:15:18.001Z,19.10
2019-05-26T21:17:48.493Z,19.00
2019-05-26T21:20:19.214Z,19.00
2019-05-26T21:22:49.725Z,18.90
2019-05-26T21:25:20.230Z,18.90
2019-05-26T21:27:50.758Z,18.80
2019-05-26T21:30:21.262Z,18.70
2019-05-26T21:32:51.766Z,18.70
2019-05-26T21:35:22.270Z,18.70
2019-05-26T21:37:52.769Z,18.80
2019-05-26T21:40:23.274Z,18.80
2019-05-26T21:42:53.769Z,18.70
2019-05-26T21:45:24.255Z,18.70
2019-05-26T21:47:54.774Z,18.70
2019-05-26T21:50:25.349Z,18.60
2019-05-26T21:52:55.859Z,18.50
2019-05-26T21:55:26.606Z,18.50
2019-05-26T21:57:57.120Z,18.50
2019-05-26T22:00:30.185Z,18.40
2019-05-26T22:03:00.949Z,18.50
2019-05-26T22:05:31.456Z,18.50
2019-05-26T22:08:01.962Z,18.50
2019-05-26T22:10:32.456Z,18.40
2019-05-26T22:13:02.946Z,18.50
2019-05-26T22:15:33.538Z,18.40
2019-05-26T22:18:04.265Z,18.30
2019-05-26T22:20:34.765Z,18.30
2019-05-26T22:23:05.256Z,18.30
2019-05-26T22:25:35.817Z,18.20
2019-05-26T22:28:07.401Z,18.20
2019-05-26T22:30:37.893Z,18.20
2019-05-26T22:33:08.398Z,18.20
2019-05-26T22:35:38.884Z,18.20
2019-05-26T22:38:09.393Z,18.30
2019-05-26T22:40:39.901Z,18.20
2019-05-26T22:43:10.505Z,18.20
2019-05-26T22:45:41.088Z,18.20
2019-05-26T22:48:11.566Z,18.20
2019-05-26T22:50:42.081Z,18.10
2019-05-26T22:53:12.572Z,18.10
2019-05-26T22:55:44.063Z,18.10
2019-05-26T22:58:14.565Z,18.10
2019-05-26T23:00:45.047Z,18.10
2019-05-26T23:03:15.552Z,18.10
2019-05-26T23:05:46.061Z,18.00
2019-05-26T23:08:16.540Z,18.00
2019-05-26T23:10:47.084Z,17.90
2019-05-26T23:13:17.581Z,17.90
2019-05-26T23:15:48.076Z,17.90
2019-05-26T23:18:18.643Z,17.90
2019-05-26T23:20:49.141Z,17.90
2019-05-26T23:23:19.637Z,17.90
2019-05-26T23:25:50.121Z,17.90
2019-05-26T23:28:20.617Z,17.90
2019-05-26T23:30:51.086Z,18.00
2019-05-26T23:33:21.594Z,17.90
2019-05-26T23:35:52.074Z,17.90
2019-05-26T23:38:22.573Z,17.90
2019-05-26T23:40:53.081Z,17.90
2019-05-26T23:43:23.562Z,17.80
2019-05-26T23:45:54.119Z,17.80
2019-05-26T23:48:24.637Z,17.80
2019-05-26T23:50:55.134Z,17.60
2019-05-26T23:53:25.615Z,17.40
2019-05-26T23:55:56.110Z,17.40
2019-05-26T23:58:26.657Z,17.30
